Time;durP1;ratioP1;P1;durP2;ratioP2;P2;SDS_P1;SDS_P2;PMS_P1;PMS_P2;Temp;Humidity;BMP_temperature;BMP_pressure;BME280_temperature;BME280_humidity;BME280_pressure;Samples;Min_cycle;Max_cycle;Signal;HPM_P1;HPM_P2
2021/12/19 00:00:25;;;;;;;0.97;0.97;;;;;;;-0.99;98.94;92704.88;4901151;28;20517;-71
2021/12/19 00:03:28;;;;;;;1.30;1.13;;;;;;;-1.05;99.32;92697.44;4900820;28;20221;-72
2021/12/19 00:08:49;;;;;;;1.13;1.13;;;;;;;-0.86;99.01;92694.16;4900596;28;20693;-72
2021/12/19 00:11:20;;;;;;;1.50;1.50;;;;;;;-0.89;99.21;92681.75;4900935;28;20614;-71
2021/12/19 00:13:47;;;;;;;0.67;0.67;;;;;;;-0.86;99.40;92686.72;4900320;28;20225;-71
2021/12/19 00:16:15;;;;;;;0.87;0.80;;;;;;;-0.90;100.00;92690.00;4900811;28;20602;-71
2021/12/19 00:18:43;;;;;;;1.50;1.50;;;;;;;-0.91;99.45;92681.78;4900494;28;20568;-72
2021/12/19 00:21:11;;;;;;;0.60;0.60;;;;;;;-0.85;99.20;92685.91;4901417;28;20216;-72
2021/12/19 00:23:39;;;;;;;1.37;1.37;;;;;;;-0.79;99.14;92685.91;4901128;28;20259;-71
2021/12/19 00:26:06;;;;;;;1.23;1.03;;;;;;;-0.82;99.43;92685.91;4900448;28;20191;-71
2021/12/19 00:28:35;;;;;;;0.97;0.97;;;;;;;-0.96;100.00;92677.63;4899929;28;20467;-71
2021/12/19 00:31:02;;;;;;;0.90;0.90;;;;;;;-0.96;99.03;92672.69;4900753;28;20494;-72
2021/12/19 00:33:30;;;;;;;3.40;1.27;;;;;;;-1.00;99.00;92666.88;4901108;28;20657;-71
2021/12/19 00:35:57;;;;;;;3.80;1.67;;;;;;;-0.98;99.13;92671.84;4912689;28;20218;-72
2021/12/19 00:38:25;;;;;;;0.93;0.93;;;;;;;-1.10;99.55;92672.66;4918447;28;20825;-71
2021/12/19 00:40:53;;;;;;;0.83;0.83;;;;;;;-1.51;100.00;92619.72;4917897;28;20571;-72
2021/12/19 00:43:32;;;;;;;1.07;1.00;;;;;;;-1.46;100.00;92618.91;4919911;28;20447;-71
2021/12/19 00:46:07;;;;;;;0.63;0.63;;;;;;;-1.63;99.83;92578.41;4920040;28;20483;-71
2021/12/19 00:48:35;;;;;;;1.20;1.20;;;;;;;-1.09;99.26;92659.44;4919916;28;20209;-71
2021/12/19 00:51:03;;;;;;;1.57;1.57;;;;;;;-1.26;100.00;92651.16;4919653;28;20578;-71
2021/12/19 00:53:30;;;;;;;0.90;0.90;;;;;;;-1.45;100.00;92647.81;4919290;28;20502;-71
2021/12/19 00:55:58;;;;;;;1.47;0.67;;;;;;;-1.55;100.00;92643.66;4919369;28;20220;-72
2021/12/19 00:58:25;;;;;;;0.70;0.70;;;;;;;-1.62;100.00;92639.50;4918396;28;20551;-72
2021/12/19 01:00:52;;;;;;;1.67;1.57;;;;;;;-1.52;100.00;92652.75;4918629;28;20280;-72
2021/12/19 01:03:22;;;;;;;1.60;1.60;;;;;;;-1.50;99.53;92654.41;4918842;28;20484;-72
2021/12/19 01:05:50;;;;;;;1.43;1.43;;;;;;;-1.68;100.00;92650.22;4918996;28;20602;-72
2021/12/19 01:08:17;;;;;;;1.03;1.03;;;;;;;-1.78;100.00;92646.06;4918032;28;20260;-72
2021/12/19 01:10:47;;;;;;;0.93;0.93;;;;;;;-1.88;100.00;92641.06;4919614;28;20570;-71
2021/12/19 01:13:15;;;;;;;0.70;0.70;;;;;;;-1.93;100.00;92636.13;4918907;28;20578;-72
2021/12/19 01:15:42;;;;;;;0.87;0.87;;;;;;;-2.03;100.00;92631.97;4918883;28;20197;-72
2021/12/19 01:18:10;;;;;;;0.50;0.50;;;;;;;-2.04;100.00;92632.78;4919066;28;20287;-72
2021/12/19 01:20:41;;;;;;;0.83;0.83;;;;;;;-2.03;100.00;92618.75;4918392;28;20641;-72
2021/12/19 01:23:11;;;;;;;0.70;0.70;;;;;;;-2.03;100.00;92622.06;4919036;28;20645;-72
2021/12/19 01:25:39;;;;;;;0.63;0.63;;;;;;;-2.05;100.00;92623.69;4918705;28;20660;-72
2021/12/19 01:28:06;;;;;;;0.67;0.67;;;;;;;-1.98;99.43;92630.31;4918506;28;20587;-72
2021/12/19 01:30:35;;;;;;;1.23;1.23;;;;;;;-1.99;99.55;92628.66;4919025;28;20558;-72
2021/12/19 01:33:03;;;;;;;0.77;0.77;;;;;;;-2.08;99.41;92626.97;4919780;28;20589;-72
2021/12/19 01:35:31;;;;;;;0.90;0.90;;;;;;;-2.03;98.35;92626.19;4918133;28;20478;-72
2021/12/19 01:37:59;;;;;;;1.27;1.27;;;;;;;-2.08;97.86;92626.13;4916676;28;20565;-72
2021/12/19 01:40:27;;;;;;;0.90;0.90;;;;;;;-2.20;98.65;92626.91;4916918;28;20641;-72
2021/12/19 01:42:57;;;;;;;1.00;1.00;;;;;;;-2.40;98.61;92628.47;4917392;28;20490;-72
2021/12/19 01:45:27;;;;;;;0.80;0.80;;;;;;;-2.68;99.62;92612.66;4901994;28;20639;-72
2021/12/19 01:47:55;;;;;;;0.50;0.50;;;;;;;-2.78;100.00;92613.41;4908906;28;20617;-72
2021/12/19 01:50:22;;;;;;;1.10;1.10;;;;;;;-2.82;99.68;92619.16;4918304;28;20245;-72
2021/12/19 01:52:50;;;;;;;0.80;0.80;;;;;;;-2.86;100.00;92616.63;4917394;28;20528;-72
2021/12/19 01:55:19;;;;;;;0.60;0.60;;;;;;;-2.98;100.00;92607.47;4918326;28;20560;-72
2021/12/19 01:57:47;;;;;;;4.53;0.97;;;;;;;-2.84;100.00;92620.78;4917986;28;20613;-72
2021/12/19 02:00:26;;;;;;;0.90;0.90;;;;;;;-2.89;100.00;92614.97;4917810;28;20284;-72
2021/12/19 02:02:54;;;;;;;0.50;0.50;;;;;;;-2.89;100.00;92622.41;4918581;28;20267;-72
2021/12/19 02:05:22;;;;;;;0.70;0.70;;;;;;;-2.72;99.45;92617.56;4917544;28;20248;-72
2021/12/19 02:07:50;;;;;;;0.60;0.60;;;;;;;-2.64;98.75;92618.41;4917802;28;20575;-72
2021/12/19 02:10:21;;;;;;;0.60;0.60;;;;;;;-2.57;98.88;92611.06;4917963;28;20574;-72
2021/12/19 02:12:50;;;;;;;0.47;0.47;;;;;;;-2.67;99.95;92619.25;4918173;28;20615;-72
2021/12/19 02:15:20;;;;;;;0.50;0.50;;;;;;;-2.71;100.00;92605.22;4916949;28;20535;-72
2021/12/19 02:17:49;;;;;;;0.50;0.50;;;;;;;-2.63;99.82;92611.03;4908791;28;20212;-72
2021/12/19 02:20:19;;;;;;;0.60;0.60;;;;;;;-2.73;100.00;92589.53;4921774;28;20247;-73
2021/12/19 02:22:47;;;;;;;0.50;0.50;;;;;;;-2.71;100.00;92594.50;4921569;28;20542;-72
2021/12/19 02:25:15;;;;;;;0.50;0.50;;;;;;;-2.79;100.00;92588.69;4922158;28;20601;-73
2021/12/19 02:27:43;;;;;;;0.63;0.63;;;;;;;-2.75;100.00;92591.16;4921194;28;20484;-73
2021/12/19 02:30:12;;;;;;;0.50;0.50;;;;;;;-2.81;100.00;92586.19;4922259;28;20618;-73
2021/12/19 02:32:40;;;;;;;0.53;0.53;;;;;;;-2.79;100.00;92569.72;4921636;28;20621;-73
2021/12/19 02:35:12;;;;;;;0.50;0.50;;;;;;;-2.67;99.82;92583.81;4921201;28;20612;-72
2021/12/19 02:38:10;;;;;;;0.50;0.50;;;;;;;-2.57;98.59;92583.03;4920999;28;20633;-73
2021/12/19 02:48:53;;;;;;;0.47;0.47;;;;;;;-2.72;97.91;92554.13;4921297;28;20494;-73
2021/12/19 02:51:20;;;;;;;0.73;0.73;;;;;;;-2.63;98.01;92565.69;4922013;28;20490;-72
2021/12/19 02:53:49;;;;;;;0.83;0.83;;;;;;;-2.64;98.24;92559.91;4921170;28;20542;-72
2021/12/19 02:56:16;;;;;;;0.83;0.83;;;;;;;-2.59;97.47;92555.03;4921516;28;20580;-73
2021/12/19 02:58:44;;;;;;;0.57;0.57;;;;;;;-2.62;97.10;92552.50;4920704;28;20207;-72
2021/12/19 03:01:15;;;;;;;0.50;0.50;;;;;;;-2.69;98.12;92550.81;4920518;28;20660;-73
2021/12/19 03:03:42;;;;;;;0.40;0.40;;;;;;;-2.86;98.62;92545.78;4920703;28;20597;-73
2021/12/19 03:06:10;;;;;;;0.50;0.50;;;;;;;-3.01;98.82;92538.28;4920075;28;20201;-72
2021/12/19 03:08:43;;;;;;;0.80;0.80;;;;;;;-2.84;97.79;92550.75;4917914;28;20665;-72
2021/12/19 03:19:26;;;;;;;0.73;0.73;;;;;;;-3.23;98.26;92532.41;4920860;28;20542;-72
2021/12/19 03:21:53;;;;;;;0.70;0.70;;;;;;;-3.35;99.34;92524.91;4920301;28;20624;-72
2021/12/19 03:24:20;;;;;;;0.60;0.60;;;;;;;-3.29;99.68;92526.59;4920113;28;20220;-72
2021/12/19 03:26:49;;;;;;;0.90;0.90;;;;;;;-3.12;98.38;92540.69;4920186;28;20683;-72
2021/12/19 03:29:16;;;;;;;0.50;0.50;;;;;;;-3.11;97.64;92526.72;4919763;28;20621;-72
2021/12/19 03:31:44;;;;;;;0.50;0.50;;;;;;;-3.25;98.85;92523.31;4920230;28;20516;-72
2021/12/19 03:34:12;;;;;;;0.50;0.50;;;;;;;-3.32;98.86;92516.69;4920309;28;20199;-72
2021/12/19 03:36:39;;;;;;;0.60;0.60;;;;;;;-3.26;98.90;92517.53;4920759;28;20326;-72
2021/12/19 03:39:14;;;;;;;0.40;0.40;;;;;;;-3.20;97.69;92521.69;4921174;28;20196;-72
2021/12/19 03:41:42;;;;;;;0.50;0.50;;;;;;;-3.08;96.40;92529.19;4920069;28;20305;-72
2021/12/19 03:44:11;;;;;;;0.60;0.60;;;;;;;-3.27;98.11;92520.84;4919968;28;20524;-72
2021/12/19 03:46:38;;;;;;;0.80;0.80;;;;;;;-3.42;99.00;92523.19;4920030;28;20203;-72
2021/12/19 03:49:06;;;;;;;0.83;0.83;;;;;;;-3.49;99.21;92509.97;4919171;28;20691;-72
2021/12/19 03:51:33;;;;;;;0.60;0.60;;;;;;;-3.48;99.50;92518.19;4919723;28;20658;-72
2021/12/19 03:54:00;;;;;;;0.50;0.50;;;;;;;-3.57;99.65;92513.22;4920196;28;20549;-72
2021/12/19 03:56:28;;;;;;;1.90;0.80;;;;;;;-3.41;98.59;92524.84;4919589;28;20580;-72
2021/12/19 03:58:55;;;;;;;0.70;0.70;;;;;;;-3.27;96.99;92537.31;4919749;28;20557;-72
2021/12/19 04:01:24;;;;;;;0.63;0.50;;;;;;;-3.33;96.09;92520.81;4919260;28;20473;-72
2021/12/19 04:03:51;;;;;;;1.63;1.53;;;;;;;-3.22;94.80;92546.41;4919197;28;20508;-72
2021/12/19 04:06:18;;;;;;;0.80;0.80;;;;;;;-3.27;94.54;92535.66;4919609;28;20565;-72
2021/12/19 04:08:46;;;;;;;1.10;1.10;;;;;;;-3.49;94.82;92531.34;4920223;28;20570;-72
2021/12/19 04:11:13;;;;;;;0.70;0.70;;;;;;;-3.50;94.57;92534.66;4919265;28;20315;-72
2021/12/19 04:13:40;;;;;;;1.20;1.20;;;;;;;-3.80;95.98;92506.44;4919336;28;20675;-72
2021/12/19 04:16:07;;;;;;;1.13;1.13;;;;;;;-4.01;98.01;92521.06;4919427;28;20487;-72
2021/12/19 04:18:36;;;;;;;1.43;1.43;;;;;;;-4.20;99.24;92521.69;4919419;28;20193;-72
2021/12/19 04:21:04;;;;;;;1.13;1.13;;;;;;;-4.09;97.46;92532.47;4908924;28;20635;-72
2021/12/19 04:23:31;;;;;;;0.97;0.97;;;;;;;-4.04;97.17;92528.41;4919291;28;20642;-72
2021/12/19 04:25:58;;;;;;;1.53;1.53;;;;;;;-4.02;97.68;92521.03;4919810;28;20493;-72
2021/12/19 04:28:26;;;;;;;2.97;1.17;;;;;;;-4.23;98.62;92520.03;4919632;28;20577;-72
2021/12/19 04:30:53;;;;;;;3.10;1.23;;;;;;;-4.20;98.77;92519.22;4919455;28;20684;-72
2021/12/19 04:33:22;;;;;;;1.73;1.63;;;;;;;-4.17;97.65;92526.66;4919475;28;20532;-72
2021/12/19 04:35:51;;;;;;;3.37;1.43;;;;;;;-4.39;98.77;92519.81;4919610;28;20615;-72
2021/12/19 04:41:35;;;;;;;1.47;1.47;;;;;;;-4.41;99.22;92521.47;4918424;28;20628;-72
2021/12/19 04:57:58;;;;;;;6.60;4.10;;;;;;;-4.29;96.17;92519.13;4912458;28;20501;-72
2021/12/19 05:00:34;;;;;;;9.93;5.40;;;;;;;-4.32;96.91;92511.69;4919337;28;20217;-72
2021/12/19 05:03:06;;;;;;;6.97;6.67;;;;;;;-4.40;95.57;92519.03;4918577;28;20494;-72
2021/12/19 05:05:52;;;;;;;5.53;5.13;;;;;;;-4.48;94.93;92524.66;4919417;28;20560;-72
2021/12/19 05:14:08;;;;;;;0.83;0.83;;;;;;;-4.49;94.63;92531.22;4910941;28;20590;-71
2021/12/19 05:16:38;;;;;;;2.07;1.97;;;;;;;-4.22;93.04;92531.53;4914133;28;20575;-70
2021/12/19 05:19:10;;;;;;;3.33;2.30;;;;;;;-4.18;92.71;92533.22;4911504;28;20595;-71
2021/12/19 05:21:40;;;;;;;2.00;1.27;;;;;;;-4.21;92.14;92540.59;4909546;28;20225;-72
2021/12/19 05:26:59;;;;;;;1.33;1.30;;;;;;;-4.47;92.85;92522.22;4895629;28;20479;-72
2021/12/19 05:29:26;;;;;;;1.00;1.00;;;;;;;-4.54;93.38;92520.50;4914258;28;20230;-72
2021/12/19 05:31:53;;;;;;;1.27;1.27;;;;;;;-4.60;93.41;92520.41;4911286;28;20639;-72
2021/12/19 05:34:21;;;;;;;1.00;1.00;;;;;;;-4.71;94.50;92512.06;4911381;28;20206;-72
2021/12/19 05:45:13;;;;;;;4.43;2.83;;;;;;;-5.36;95.25;92507.16;4914301;28;20640;-72
2021/12/19 05:47:41;;;;;;;2.97;2.77;;;;;;;-5.52;97.85;92515.91;4911915;28;20593;-72
2021/12/19 05:50:09;;;;;;;1.93;1.27;;;;;;;-5.65;98.70;92518.19;4915308;28;20585;-71
2021/12/19 05:52:37;;;;;;;2.93;1.53;;;;;;;-5.57;98.14;92526.50;4914230;28;20280;-70
2021/12/19 05:55:08;;;;;;;2.40;2.37;;;;;;;-5.74;98.74;92515.56;4915454;28;20672;-70
2021/12/19 05:57:35;;;;;;;3.87;3.67;;;;;;;-5.73;98.69;92513.13;4911733;28;20589;-69
2021/12/19 06:00:07;;;;;;;4.33;4.07;;;;;;;-5.60;98.19;92506.78;4901832;28;20209;-70
2021/12/19 06:02:34;;;;;;;2.70;2.60;;;;;;;-5.68;99.86;92508.28;4916444;28;20550;-71
2021/12/19 06:05:01;;;;;;;5.30;4.90;;;;;;;-5.64;99.73;92510.00;4908500;28;20567;-71
2021/12/19 06:07:29;;;;;;;1.83;1.83;;;;;;;-5.66;100.00;92509.97;4914330;28;20497;-72
2021/12/19 06:09:56;;;;;;;2.37;2.37;;;;;;;-5.65;98.75;92496.88;4916938;28;20256;-71
2021/12/19 06:12:24;;;;;;;8.13;4.30;;;;;;;-5.53;98.67;92506.06;4914528;28;20264;-71
2021/12/19 06:14:52;;;;;;;3.37;3.27;;;;;;;-5.62;99.30;92501.81;4912110;28;20579;-71
2021/12/19 06:17:20;;;;;;;2.47;2.47;;;;;;;-5.43;98.16;92513.59;4906796;28;20612;-71
2021/12/19 06:19:47;;;;;;;5.03;4.63;;;;;;;-5.46;98.55;92503.69;4909196;28;20579;-72
2021/12/19 06:22:14;;;;;;;2.37;2.33;;;;;;;-5.45;99.50;92487.31;4915672;28;20515;-71
2021/12/19 06:24:41;;;;;;;11.60;4.03;;;;;;;-5.36;99.13;92497.28;4912812;28;20224;-71
2021/12/19 06:27:09;;;;;;;3.97;3.40;;;;;;;-5.37;97.80;92503.03;4909080;28;20601;-71
2021/12/19 06:29:37;;;;;;;5.63;3.80;;;;;;;-5.43;98.81;92484.06;4902515;28;20614;-71
2021/12/19 06:32:05;;;;;;;10.30;7.00;;;;;;;-5.43;98.73;92505.41;4911209;28;20669;-71
2021/12/19 06:34:33;;;;;;;9.93;6.43;;;;;;;-5.46;98.04;92508.63;4909512;28;20558;-71
2021/12/19 06:37:00;;;;;;;13.83;5.90;;;;;;;-5.49;99.36;92493.00;4906615;28;20213;-70
2021/12/19 06:39:27;;;;;;;2.13;2.13;;;;;;;-5.27;98.86;92494.94;4907152;28;20598;-71
2021/12/19 06:41:54;;;;;;;5.40;4.87;;;;;;;-5.14;98.91;92484.47;4906803;28;20193;-71
2021/12/19 06:44:22;;;;;;;2.47;2.43;;;;;;;-4.98;98.40;92489.59;4916473;28;20209;-70
2021/12/19 06:46:51;;;;;;;4.43;4.07;;;;;;;-4.89;96.56;92482.28;4911597;28;20594;-71
2021/12/19 06:49:18;;;;;;;5.03;4.60;;;;;;;-4.82;95.88;92484.03;4911266;28;20513;-71
2021/12/19 06:51:45;;;;;;;3.57;3.47;;;;;;;-4.78;95.04;92480.78;4914185;28;20535;-71
2021/12/19 06:54:13;;;;;;;4.90;4.60;;;;;;;-4.74;96.37;92473.47;4912771;28;20573;-72
2021/12/19 06:56:40;;;;;;;5.03;4.73;;;;;;;-4.74;95.16;92475.94;4912015;28;20197;-72
2021/12/19 06:59:07;;;;;;;12.00;8.80;;;;;;;-4.63;94.92;92483.44;4909719;28;20597;-72
2021/12/19 07:01:37;;;;;;;20.90;10.97;;;;;;;-4.61;94.48;92480.16;4904515;28;20570;-72
2021/12/19 07:04:05;;;;;;;10.20;9.47;;;;;;;-4.61;93.83;92475.22;4912229;28;20606;-72
2021/12/19 07:06:33;;;;;;;6.60;6.13;;;;;;;-4.58;92.94;92479.38;4915162;28;20560;-72
2021/12/19 07:09:01;;;;;;;4.30;3.90;;;;;;;-4.55;93.95;92476.94;4914382;28;20601;-73
2021/12/19 07:11:28;;;;;;;5.37;4.90;;;;;;;-4.49;93.44;92481.09;4914319;28;20594;-71
2021/12/19 07:13:55;;;;;;;7.10;5.80;;;;;;;-4.49;93.49;92474.53;4912427;28;20656;-71
2021/12/19 07:16:22;;;;;;;8.00;4.77;;;;;;;-4.48;93.33;92481.13;4907920;28;20658;-71
2021/12/19 07:18:50;;;;;;;2.77;2.73;;;;;;;-4.53;93.34;92482.72;4909639;28;20589;-70
2021/12/19 07:21:18;;;;;;;5.13;4.17;;;;;;;-4.46;93.33;92483.63;4914606;28;20197;-71
2021/12/19 07:23:46;;;;;;;7.93;6.47;;;;;;;-4.44;93.10;92491.84;4914996;28;20663;-70
2021/12/19 07:26:13;;;;;;;3.50;3.30;;;;;;;-4.39;93.64;92482.84;4909588;28;20481;-72
2021/12/19 07:28:44;;;;;;;5.33;5.03;;;;;;;-4.32;93.80;92482.94;4910779;28;20506;-70
2021/12/19 07:31:11;;;;;;;4.03;3.63;;;;;;;-4.23;93.11;92497.84;4915150;28;20635;-71
2021/12/19 07:33:38;;;;;;;4.10;3.90;;;;;;;-4.19;92.40;92493.75;4919011;28;20565;-71
2021/12/19 07:36:06;;;;;;;12.87;4.13;;;;;;;-4.11;93.07;92493.84;4915417;28;20693;-71
2021/12/19 07:38:47;;;;;;;4.93;3.70;;;;;;;-4.08;92.81;92479.88;4909828;28;20499;-70
2021/12/19 07:41:14;;;;;;;1.73;1.63;;;;;;;-4.03;93.68;92470.88;4915434;28;20226;-71
2021/12/19 07:43:42;;;;;;;5.53;5.17;;;;;;;-3.94;92.80;92490.69;4917306;28;20203;-71
2021/12/19 07:46:09;;;;;;;4.10;3.90;;;;;;;-3.88;92.59;92484.97;4907071;28;20584;-71
2021/12/19 07:48:39;;;;;;;2.63;2.53;;;;;;;-3.82;91.99;92485.84;4907889;28;20623;-70
2021/12/19 07:51:06;;;;;;;4.07;3.77;;;;;;;-3.77;92.58;92471.09;4907721;28;20202;-71
2021/12/19 07:53:35;;;;;;;2.37;2.27;;;;;;;-3.71;92.66;92475.25;4911099;28;20600;-71
2021/12/19 07:56:02;;;;;;;2.50;2.40;;;;;;;-3.65;93.21;92460.47;4913247;28;20585;-71
2021/12/19 07:58:30;;;;;;;15.13;3.63;;;;;;;-3.52;93.34;92467.16;4908258;28;20573;-72
2021/12/19 08:00:57;;;;;;;2.83;2.07;;;;;;;-3.45;91.98;92486.16;4910754;28;20562;-72
2021/12/19 08:03:24;;;;;;;3.07;1.30;;;;;;;-3.49;91.37;92468.00;4904440;28;20674;-72
2021/12/19 08:05:51;;;;;;;2.83;2.60;;;;;;;-3.42;91.64;92472.16;4915015;28;20216;-71
2021/12/19 08:08:25;;;;;;;2.07;1.97;;;;;;;-3.34;92.06;92462.34;4905343;28;20665;-72
2021/12/19 08:13:40;;;;;;;1.83;1.73;;;;;;;-3.09;92.53;92448.47;4909935;28;20228;-72
2021/12/19 08:16:07;;;;;;;2.40;2.10;;;;;;;-3.01;92.59;92447.72;4908363;28;20474;-72
2021/12/19 08:18:35;;;;;;;2.27;1.73;;;;;;;-2.83;92.34;92459.31;4910631;28;20508;-72
2021/12/19 08:21:02;;;;;;;3.83;2.53;;;;;;;-2.70;91.65;92460.19;4917431;28;20198;-70
2021/12/19 08:23:30;;;;;;;2.80;2.63;;;;;;;-2.73;91.86;92451.13;4916341;28;20520;-71
2021/12/19 08:25:59;;;;;;;3.13;3.03;;;;;;;-2.79;92.67;92436.25;4912365;28;20606;-72
2021/12/19 08:28:26;;;;;;;3.50;3.33;;;;;;;-2.85;93.15;92430.47;4907704;28;20559;-72
2021/12/19 08:30:54;;;;;;;4.17;3.87;;;;;;;-2.72;94.71;92417.34;4908856;28;20626;-72
2021/12/19 08:33:21;;;;;;;3.13;2.03;;;;;;;-2.66;93.75;92425.59;4908066;28;20583;-71
2021/12/19 08:35:48;;;;;;;1.83;1.83;;;;;;;-2.61;93.19;92425.63;4902483;28;20488;-72
2021/12/19 08:38:15;;;;;;;1.63;1.63;;;;;;;-2.44;93.31;92418.25;4911968;28;20486;-72
2021/12/19 08:40:44;;;;;;;2.90;2.80;;;;;;;-2.18;92.69;92424.03;4910531;28;20561;-72
2021/12/19 08:43:13;;;;;;;3.77;3.67;;;;;;;-2.00;91.22;92429.03;4914295;28;20608;-72
2021/12/19 08:45:40;;;;;;;4.77;3.90;;;;;;;-1.85;89.64;92428.19;4914756;28;20310;-74
2021/12/19 08:48:08;;;;;;;2.73;2.53;;;;;;;-1.69;89.46;92424.91;4916682;28;20217;-73
2021/12/19 08:50:35;;;;;;;5.60;4.80;;;;;;;-1.50;88.59;92428.19;4912766;28;20531;-71
2021/12/19 08:53:02;;;;;;;7.87;7.37;;;;;;;-1.44;88.12;92413.31;4907503;28;20638;-72
2021/12/19 08:55:30;;;;;;;11.37;10.33;;;;;;;-1.28;87.46;92428.16;4907696;28;20206;-72
2021/12/19 08:57:57;;;;;;;11.83;10.93;;;;;;;-1.23;87.07;92415.75;4916934;28;20582;-73
2021/12/19 09:00:26;;;;;;;10.50;9.20;;;;;;;-1.09;85.92;92421.50;4910244;28;20571;-72
2021/12/19 09:02:55;;;;;;;11.07;9.83;;;;;;;-1.10;85.94;92412.41;4907354;28;20598;-71
2021/12/19 09:05:24;;;;;;;15.57;12.00;;;;;;;-1.13;85.70;92401.69;4914427;28;20474;-72
2021/12/19 09:07:51;;;;;;;12.80;9.40;;;;;;;-1.06;86.42;92405.78;4912135;28;20492;-72
2021/12/19 09:10:20;;;;;;;9.80;8.90;;;;;;;-0.94;85.55;92404.09;4910129;28;20529;-73
2021/12/19 09:12:48;;;;;;;11.67;10.80;;;;;;;-0.90;84.89;92383.41;4909252;28;20601;-73
2021/12/19 09:15:16;;;;;;;12.53;9.70;;;;;;;-0.76;84.76;92395.75;4905173;28;20510;-72
2021/12/19 09:17:45;;;;;;;7.00;6.50;;;;;;;-0.68;84.20;92385.81;4906215;28;20209;-72
2021/12/19 09:20:14;;;;;;;11.07;10.27;;;;;;;-0.57;83.87;92384.94;4907346;28;20641;-72
2021/12/19 09:22:41;;;;;;;8.10;6.93;;;;;;;-0.59;83.36;92379.16;4910727;28;20487;-72
2021/12/19 09:25:09;;;;;;;8.23;7.67;;;;;;;-0.58;83.47;92377.50;4911976;28;20578;-72
2021/12/19 09:27:37;;;;;;;7.30;6.87;;;;;;;-0.68;83.69;92365.97;4904760;28;20534;-72
2021/12/19 09:30:06;;;;;;;13.83;7.70;;;;;;;-0.88;83.35;92343.75;4900699;28;20645;-72
2021/12/19 09:32:33;;;;;;;7.70;6.97;;;;;;;-0.70;84.27;92350.28;4913232;28;20557;-72
2021/12/19 09:35:02;;;;;;;8.90;7.90;;;;;;;-0.57;84.08;92342.78;4908676;28;20605;-72
2021/12/19 09:37:30;;;;;;;11.97;9.23;;;;;;;-0.76;83.61;92318.06;4915471;28;20498;-72
2021/12/19 09:40:01;;;;;;;9.30;8.03;;;;;;;-0.44;83.55;92338.53;4900645;28;20645;-72
2021/12/19 09:42:33;;;;;;;12.00;8.93;;;;;;;-0.16;82.72;92342.47;4914483;28;20198;-72
2021/12/19 09:45:02;;;;;;;8.07;7.50;;;;;;;0.07;82.52;92336.50;4913763;28;20559;-72
2021/12/19 09:47:29;;;;;;;17.80;8.53;;;;;;;0.23;81.22;92340.50;4906351;28;20226;-72
2021/12/19 09:49:58;;;;;;;10.70;9.73;;;;;;;0.24;80.26;92310.69;4911875;28;20210;-72
2021/12/19 09:52:28;;;;;;;43.87;20.10;;;;;;;0.68;80.23;92329.28;4915916;28;20602;-73
2021/12/19 09:54:55;;;;;;;14.27;11.97;;;;;;;0.85;79.37;92334.91;4915147;28;20228;-71
2021/12/19 09:57:22;;;;;;;19.83;14.13;;;;;;;1.07;78.69;92325.56;4908669;28;20268;-72
2021/12/19 09:59:49;;;;;;;14.77;12.90;;;;;;;1.29;77.84;92321.13;4908975;28;20602;-72
2021/12/19 10:02:17;;;;;;;19.23;14.83;;;;;;;1.80;76.57;92322.06;4911590;28;20485;-72
2021/12/19 10:04:46;;;;;;;22.93;14.53;;;;;;;2.65;74.34;92325.66;4911648;28;20550;-72
2021/12/19 10:07:17;;;;;;;30.93;17.30;;;;;;;3.67;70.73;92342.72;4908148;28;20579;-72
2021/12/19 10:10:12;;;;;;;21.87;18.17;;;;;;;4.66;66.51;92357.94;4911692;28;20473;-72
2021/12/19 10:12:50;;;;;;;31.77;18.63;;;;;;;5.55;65.12;92342.19;4916508;28;20649;-72
2021/12/19 10:15:20;;;;;;;27.27;13.70;;;;;;;6.11;61.05;92364.81;4912056;28;20618;-73
2021/12/19 10:17:47;;;;;;;23.67;14.10;;;;;;;6.57;58.88;92355.00;4908783;28;20615;-71
2021/12/19 10:20:16;;;;;;;23.27;14.03;;;;;;;7.00;57.72;92353.59;4913806;28;20607;-71
2021/12/19 10:22:45;;;;;;;27.30;17.27;;;;;;;7.20;56.28;92356.28;4910524;28;22105;-73
2021/12/19 10:25:21;;;;;;;46.30;24.17;;;;;;;7.22;55.68;92359.53;4915367;28;20202;-72
2021/12/19 10:27:50;;;;;;;42.67;23.00;;;;;;;7.31;56.92;92343.31;4913390;28;20469;-72
2021/12/19 10:30:23;;;;;;;43.13;20.80;;;;;;;7.34;56.19;92341.53;4912258;28;20618;-72
2021/12/19 10:32:58;;;;;;;29.80;17.70;;;;;;;7.80;55.47;92344.91;4910037;28;20644;-73
2021/12/19 10:35:29;;;;;;;9.80;8.60;;;;;;;7.90;54.03;92349.53;4906200;28;20583;-72
2021/12/19 10:37:57;;;;;;;11.67;10.50;;;;;;;8.01;52.16;92361.72;4907277;28;20206;-72
2021/12/19 10:40:26;;;;;;;15.40;9.73;;;;;;;8.32;51.63;92366.44;4911670;28;20481;-72
2021/12/19 10:42:58;;;;;;;23.67;12.60;;;;;;;8.76;49.20;92363.88;4908087;28;20657;-72
2021/12/19 10:45:30;;;;;;;20.93;10.93;;;;;;;8.99;48.25;92357.03;4907606;28;20206;-72
2021/12/19 10:48:19;;;;;;;33.10;11.57;;;;;;;8.80;47.89;92348.59;4909330;28;20403;-72
2021/12/19 10:50:52;;;;;;;20.87;10.47;;;;;;;8.36;48.24;92347.00;4917849;28;20566;-72
2021/12/19 10:53:23;;;;;;;26.90;14.97;;;;;;;7.81;51.25;92311.34;4912103;28;20545;-73
2021/12/19 10:55:53;;;;;;;20.20;12.17;;;;;;;7.27;53.42;92296.56;4912249;28;20668;-72
2021/12/19 10:58:24;;;;;;;8.47;7.53;;;;;;;6.81;55.13;92267.22;4912284;28;20452;-72
2021/12/19 11:01:04;;;;;;;5.47;4.90;;;;;;;6.71;55.38;92268.38;4911920;28;20577;-72
2021/12/19 11:03:41;;;;;;;3.53;3.40;;;;;;;7.20;54.86;92262.50;4918130;28;20649;-72
2021/12/19 11:06:17;;;;;;;5.47;5.07;;;;;;;7.80;53.45;92269.47;4912006;28;20601;-72
2021/12/19 11:08:45;;;;;;;14.67;9.60;;;;;;;7.71;55.23;92249.72;4909025;28;20493;-71
2021/12/19 11:11:30;;;;;;;8.27;7.23;;;;;;;7.14;57.75;92225.84;4920316;28;20213;-72
2021/12/19 11:13:57;;;;;;;9.00;7.00;;;;;;;7.28;55.92;92217.81;4914754;28;20529;-72
2021/12/19 11:16:24;;;;;;;18.03;9.93;;;;;;;7.99;54.21;92241.94;4913711;28;20597;-72
2021/12/19 11:18:52;;;;;;;17.03;12.30;;;;;;;8.22;54.37;92222.53;4908513;28;20564;-72
2021/12/19 11:21:19;;;;;;;96.93;33.23;;;;;;;8.89;54.75;92219.75;4917257;28;20229;-72
2021/12/19 11:23:47;;;;;;;33.57;18.43;;;;;;;9.59;49.55;92254.47;4908728;28;20623;-72
2021/12/19 11:26:19;;;;;;;32.03;17.47;;;;;;;10.14;47.68;92262.84;4916013;28;20613;-71
2021/12/19 11:28:47;;;;;;;62.13;26.57;;;;;;;10.60;46.10;92261.50;4909961;28;20466;-72
2021/12/19 11:31:15;;;;;;;47.70;22.13;;;;;;;11.15;45.49;92267.19;4904962;28;20587;-72
2021/12/19 11:34:00;;;;;;;50.13;23.00;;;;;;;11.58;43.33;92268.34;4910990;28;20632;-72
2021/12/19 11:36:33;;;;;;;56.43;24.83;;;;;;;11.88;43.47;92253.28;4905627;28;20517;-72
2021/12/19 11:39:02;;;;;;;49.60;24.10;;;;;;;12.18;43.85;92257.59;4912545;28;20509;-72
2021/12/19 11:41:32;;;;;;;40.93;21.97;;;;;;;12.09;41.38;92266.50;4910984;28;20622;-72
2021/12/19 11:44:04;;;;;;;30.63;17.23;;;;;;;12.11;41.61;92257.13;4908602;28;20611;-72
2021/12/19 11:46:50;;;;;;;27.43;14.00;;;;;;;11.84;41.01;92239.16;4915001;28;20510;-72
2021/12/19 11:49:22;;;;;;;37.83;18.60;;;;;;;11.43;41.86;92228.69;4909734;28;20585;-73
2021/12/19 11:52:10;;;;;;;46.37;20.03;;;;;;;11.32;42.68;92230.94;4904550;28;20583;-73
2021/12/19 11:54:37;;;;;;;87.17;31.83;;;;;;;10.96;43.06;92222.69;4917200;28;20753;-70
2021/12/19 11:57:11;;;;;;;29.43;16.87;;;;;;;10.92;42.83;92217.00;4913086;28;20578;-70
2021/12/19 11:59:39;;;;;;;35.67;17.13;;;;;;;10.82;43.19;92202.38;4911192;28;20492;-70
2021/12/19 12:02:23;;;;;;;33.87;16.13;;;;;;;10.38;44.53;92185.16;4907037;28;20300;-71
2021/12/19 12:05:21;;;;;;;32.73;16.33;;;;;;;9.65;46.73;92158.38;4908155;28;20486;-71
2021/12/19 12:08:14;;;;;;;55.33;26.37;;;;;;;8.67;48.91;92131.72;4908225;28;20228;-71
2021/12/19 12:11:12;;;;;;;76.03;30.87;;;;;;;8.34;50.73;92122.28;4902347;28;20205;-71
2021/12/19 12:13:42;;;;;;;46.93;24.77;;;;;;;8.25;50.92;92103.31;4915113;28;20468;-71
2021/12/19 12:16:38;;;;;;;39.87;21.33;;;;;;;7.83;51.27;92110.94;4911837;28;20689;-70
2021/12/19 12:19:07;;;;;;;38.93;21.67;;;;;;;7.37;53.38;92090.16;4911900;28;20613;-71
2021/12/19 12:21:41;;;;;;;36.97;20.67;;;;;;;7.13;54.93;92081.06;4904878;28;20570;-72
2021/12/19 12:24:17;;;;;;;52.63;25.00;;;;;;;6.77;55.73;92073.19;4915890;28;20518;-73
2021/12/19 12:26:56;;;;;;;29.80;18.87;;;;;;;6.53;56.30;92071.63;4911363;28;20545;-72
2021/12/19 12:29:25;;;;;;;22.80;14.40;;;;;;;6.66;55.77;92081.13;4909357;28;20560;-72
2021/12/19 12:31:54;;;;;;;41.53;17.37;;;;;;;6.84;54.96;92073.78;4904494;28;20484;-72
2021/12/19 12:34:24;;;;;;;29.67;17.40;;;;;;;6.82;54.10;92063.81;4908305;28;20654;-72
2021/12/19 12:37:05;;;;;;;26.73;15.13;;;;;;;6.70;54.90;92041.69;4911499;28;20517;-72